createdAt,value
2018-12-12T00:01:25.039Z,100.00
2018-12-12T00:04:29.487Z,100.00
2018-12-12T00:07:24.374Z,100.00
2018-12-12T00:09:54.900Z,100.00
2018-12-12T00:12:25.358Z,100.00
2018-12-12T00:15:17.658Z,100.00
2018-12-12T00:18:23.157Z,100.00
2018-12-12T00:20:55.536Z,100.00
2018-12-12T00:23:24.991Z,100.00
2018-12-12T00:26:23.196Z,100.00
2018-12-12T00:29:18.998Z,100.00
2018-12-12T00:32:00.469Z,100.00
2018-12-12T00:34:28.997Z,100.00
2018-12-12T00:37:05.747Z,100.00
2018-12-12T00:39:35.199Z,100.00
2018-12-12T00:42:24.867Z,99.87
2018-12-12T00:45:06.727Z,99.67
2018-12-12T00:47:35.287Z,99.66
2018-12-12T00:50:08.421Z,99.67
2018-12-12T00:52:37.844Z,100.00
2018-12-12T00:55:10.708Z,100.00
2018-12-12T00:57:39.255Z,99.86
2018-12-12T01:00:09.787Z,99.21
2018-12-12T01:02:38.337Z,98.93
2018-12-12T01:05:22.290Z,99.09
2018-12-12T01:08:23.588Z,99.04
2018-12-12T01:10:52.103Z,98.90
2018-12-12T01:13:24.212Z,98.89
2018-12-12T01:16:00.019Z,98.72
2018-12-12T01:18:28.615Z,98.55
2018-12-12T01:21:22.397Z,98.48
2018-12-12T01:24:05.900Z,98.24
2018-12-12T01:26:34.581Z,98.05
2018-12-12T01:29:18.000Z,98.74
2018-12-12T01:31:59.914Z,98.87
2018-12-12T01:34:28.472Z,98.28
2018-12-12T01:36:59.940Z,98.52
2018-12-12T01:39:48.461Z,98.49
2018-12-12T01:42:24.969Z,98.44
2018-12-12T01:44:53.501Z,98.32
2018-12-12T01:47:22.036Z,98.43
2018-12-12T01:49:50.548Z,98.73
2018-12-12T01:52:32.669Z,98.33
2018-12-12T01:55:01.209Z,98.26
2018-12-12T01:57:43.078Z,98.29
2018-12-12T02:00:24.073Z,97.67
2018-12-12T02:02:56.367Z,97.85
2018-12-12T02:05:35.738Z,98.21
2018-12-12T02:08:04.275Z,98.24
2018-12-12T02:10:47.875Z,98.17
2018-12-12T02:13:48.244Z,97.45
2018-12-12T02:16:26.765Z,97.45
2018-12-12T02:18:55.200Z,96.97
2018-12-12T02:21:28.947Z,96.63
2018-12-12T02:23:57.467Z,96.35
2018-12-12T02:26:35.738Z,96.03
2018-12-12T02:29:04.246Z,96.68
2018-12-12T02:31:48.448Z,96.22
2018-12-12T02:34:16.979Z,95.97
2018-12-12T02:36:45.592Z,96.07
2018-12-12T02:39:14.046Z,96.20
2018-12-12T02:41:48.372Z,96.33
2018-12-12T02:44:38.731Z,96.04
2018-12-12T02:47:08.165Z,95.75
2018-12-12T02:49:51.989Z,95.53
2018-12-12T02:52:47.469Z,95.79
2018-12-12T02:55:18.141Z,95.55
2018-12-12T02:57:48.576Z,96.29
2018-12-12T03:00:17.108Z,96.03
2018-12-12T03:02:45.631Z,95.49
2018-12-12T03:05:14.233Z,95.51
2018-12-12T03:07:42.757Z,95.72
2018-12-12T03:10:11.287Z,95.88
2018-12-12T03:12:39.853Z,95.88
2018-12-12T03:15:39.305Z,95.86
2018-12-12T03:18:41.929Z,95.76
2018-12-12T03:21:10.472Z,96.03
2018-12-12T03:23:46.117Z,95.26
2018-12-12T03:26:14.622Z,95.76
2018-12-12T03:28:43.165Z,95.54
2018-12-12T03:31:11.702Z,95.57
2018-12-12T03:33:40.204Z,96.06
2018-12-12T03:36:08.738Z,95.67
2018-12-12T03:38:37.255Z,95.72
2018-12-12T03:41:05.772Z,95.91
2018-12-12T03:43:46.796Z,96.01
2018-12-12T03:46:17.355Z,95.85
2018-12-12T03:48:46.771Z,96.15
2018-12-12T03:51:27.323Z,95.89
2018-12-12T03:53:55.840Z,96.14
2018-12-12T03:56:25.325Z,96.27
2018-12-12T03:58:53.852Z,96.90
2018-12-12T04:01:22.391Z,96.98
2018-12-12T04:03:50.917Z,96.73
2018-12-12T04:06:19.462Z,96.81
2018-12-12T04:08:48.010Z,95.93
2018-12-12T04:11:21.837Z,96.34
2018-12-12T04:13:50.362Z,96.86
2018-12-12T04:16:22.308Z,96.90
2018-12-12T04:18:50.953Z,96.32
2018-12-12T04:21:27.572Z,96.41
2018-12-12T04:23:58.327Z,96.42
2018-12-12T04:26:45.550Z,96.48
2018-12-12T04:29:24.733Z,96.97
2018-12-12T04:31:53.265Z,96.84
2018-12-12T04:34:35.912Z,97.05
2018-12-12T04:37:04.520Z,97.02
2018-12-12T04:39:33.166Z,97.69
2018-12-12T04:42:01.716Z,97.24
2018-12-12T04:44:53.183Z,97.40
2018-12-12T04:47:28.054Z,97.83
2018-12-12T04:49:56.563Z,97.76
2018-12-12T04:52:32.700Z,97.93
2018-12-12T04:55:01.215Z,97.90
2018-12-12T04:57:34.162Z,97.72
2018-12-12T05:00:02.720Z,97.63
2018-12-12T05:02:32.308Z,98.18
2018-12-12T05:05:01.756Z,98.03
2018-12-12T05:07:47.709Z,97.96
2018-12-12T05:10:18.801Z,97.72
2018-12-12T05:12:47.483Z,97.97
2018-12-12T05:15:16.023Z,98.49
2018-12-12T05:17:47.709Z,99.13
2018-12-12T05:20:21.379Z,99.73
2018-12-12T05:22:49.925Z,100.00
2018-12-12T05:25:18.451Z,100.00
2018-12-12T05:27:47.092Z,100.00
2018-12-12T05:30:32.735Z,100.00
2018-12-12T05:33:01.893Z,100.00
2018-12-12T05:35:31.695Z,100.00
2018-12-12T05:38:00.817Z,100.00
2018-12-12T05:40:46.195Z,100.00
2018-12-12T05:43:45.588Z,100.00
2018-12-12T05:46:23.896Z,100.00
2018-12-12T05:48:52.434Z,100.00
2018-12-12T05:51:28.439Z,100.00
2018-12-12T05:53:56.967Z,100.00
2018-12-12T05:56:42.595Z,100.00
2018-12-12T05:59:11.562Z,100.00
2018-12-12T06:01:47.781Z,100.00
2018-12-12T06:04:33.308Z,100.00
2018-12-12T06:07:01.844Z,100.00
2018-12-12T06:09:40.935Z,100.00
2018-12-12T06:12:33.436Z,100.00
2018-12-12T06:15:01.974Z,100.00
2018-12-12T06:17:31.531Z,100.00
2018-12-12T06:20:00.071Z,100.00
2018-12-12T06:22:37.844Z,100.00
2018-12-12T06:25:04.468Z,100.00
2018-12-12T06:27:33.587Z,100.00
2018-12-12T06:30:02.154Z,100.00
2018-12-12T06:32:47.684Z,100.00
2018-12-12T06:35:25.608Z,100.00
2018-12-12T06:37:55.048Z,100.00
2018-12-12T06:40:23.598Z,100.00
2018-12-12T06:42:55.775Z,100.00
2018-12-12T06:45:32.553Z,100.00
2018-12-12T06:48:02.041Z,100.00
2018-12-12T06:50:32.507Z,100.00
2018-12-12T06:53:01.071Z,100.00
2018-12-12T06:55:46.963Z,100.00
2018-12-12T06:58:15.504Z,100.00
2018-12-12T07:00:58.232Z,100.00
2018-12-12T07:03:41.914Z,100.00
2018-12-12T07:06:29.690Z,100.00
2018-12-12T07:09:13.355Z,100.00
2018-12-12T07:12:10.837Z,100.00
2018-12-12T07:14:39.386Z,100.00
2018-12-12T07:17:18.790Z,100.00
2018-12-12T07:19:48.245Z,100.00
2018-12-12T07:22:17.805Z,100.00
2018-12-12T07:24:57.995Z,100.00
2018-12-12T07:27:26.532Z,100.00
2018-12-12T07:30:16.994Z,100.00
2018-12-12T07:32:45.566Z,100.00
2018-12-12T07:35:14.115Z,100.00
2018-12-12T07:37:48.560Z,100.00
2018-12-12T07:40:17.997Z,100.00
2018-12-12T07:42:54.711Z,100.00
2018-12-12T07:45:24.168Z,100.00
2018-12-12T07:47:54.690Z,100.00
2018-12-12T07:52:18.611Z,100.00
2018-12-12T07:54:47.671Z,100.00
2018-12-12T07:57:16.734Z,100.00
2018-12-12T07:59:45.842Z,100.00
2018-12-12T08:02:14.899Z,100.00
2018-12-12T08:07:19.527Z,100.00
2018-12-12T08:12:24.376Z,100.00
2018-12-12T08:14:53.419Z,100.00
2018-12-12T08:17:22.451Z,100.00
2018-12-12T08:19:51.505Z,100.00
2018-12-12T08:24:55.781Z,100.00
2018-12-12T08:27:24.860Z,100.00
2018-12-12T08:29:53.939Z,100.00
2018-12-12T08:32:22.978Z,100.00
2018-12-12T08:34:52.035Z,100.00
2018-12-12T08:37:21.126Z,100.00
2018-12-12T08:39:50.233Z,100.00
2018-12-12T08:42:19.283Z,100.00
2018-12-12T08:44:49.283Z,100.00
2018-12-12T08:47:18.379Z,100.00
2018-12-12T08:49:47.436Z,100.00
2018-12-12T08:52:16.491Z,100.00
2018-12-12T08:57:22.843Z,99.73
2018-12-12T08:59:51.995Z,98.83
2018-12-12T09:02:21.039Z,99.00
2018-12-12T09:04:50.094Z,98.94
2018-12-12T09:07:19.172Z,99.74
2018-12-12T09:09:48.215Z,99.94
2018-12-12T09:14:53.017Z,99.68
2018-12-12T09:17:22.226Z,100.00
2018-12-12T09:19:51.254Z,99.32
2018-12-12T09:22:20.332Z,99.99
2018-12-12T09:24:49.446Z,99.56
2018-12-12T09:27:18.503Z,98.65
2018-12-12T09:29:48.534Z,98.96
2018-12-12T09:32:17.538Z,98.22
2018-12-12T09:34:46.582Z,97.92
2018-12-12T09:37:16.627Z,97.34
2018-12-12T09:39:46.629Z,96.87
2018-12-12T09:42:15.720Z,97.14
2018-12-12T09:44:44.766Z,97.33
2018-12-12T09:47:13.836Z,96.53
2018-12-12T09:49:42.890Z,97.44
2018-12-12T09:52:12.457Z,97.01
2018-12-12T09:54:41.514Z,96.16
2018-12-12T09:57:10.570Z,96.07
2018-12-12T09:59:39.649Z,95.98
2018-12-12T10:02:08.706Z,96.10
2018-12-12T10:04:37.737Z,95.71
2018-12-12T10:07:07.532Z,96.06
2018-12-12T10:09:36.555Z,95.77
2018-12-12T10:12:09.347Z,95.42
2018-12-12T10:14:38.936Z,95.78
2018-12-12T10:19:44.920Z,95.15
2018-12-12T10:22:13.963Z,94.23
2018-12-12T10:27:21.688Z,94.36
2018-12-12T10:29:50.736Z,93.76
2018-12-12T10:32:20.294Z,92.91
2018-12-12T10:34:49.390Z,93.19
2018-12-12T10:37:19.383Z,93.04
2018-12-12T10:39:48.433Z,93.54
2018-12-12T10:42:17.888Z,93.30
2018-12-12T10:44:47.187Z,93.06
2018-12-12T10:47:16.239Z,92.17
2018-12-12T10:49:45.283Z,89.66
2018-12-12T10:52:18.700Z,89.58
2018-12-12T10:54:47.734Z,88.21
2018-12-12T10:57:16.786Z,89.50
2018-12-12T10:59:45.849Z,88.53
2018-12-12T11:02:21.865Z,89.07
2018-12-12T11:04:50.907Z,87.89
2018-12-12T11:07:19.955Z,89.09
2018-12-12T11:09:49.875Z,88.10
2018-12-12T11:12:18.047Z,85.84
2018-12-12T11:14:53.829Z,87.33
2018-12-12T11:19:58.550Z,87.51
2018-12-12T11:22:27.589Z,88.25
2018-12-12T11:24:56.642Z,88.58
2018-12-12T11:27:25.718Z,87.01
2018-12-12T11:29:55.391Z,86.21
2018-12-12T11:32:24.652Z,84.68
2018-12-12T11:34:53.690Z,83.71
2018-12-12T11:37:22.723Z,83.59
2018-12-12T11:39:52.060Z,81.34
2018-12-12T11:42:21.356Z,81.56
2018-12-12T11:44:50.618Z,84.41
2018-12-12T11:47:19.679Z,83.86
2018-12-12T11:49:48.728Z,84.42
2018-12-12T11:52:17.773Z,85.76
2018-12-12T11:54:47.529Z,87.72
2018-12-12T11:57:16.570Z,88.63
2018-12-12T11:59:46.647Z,89.13
2018-12-12T12:02:16.908Z,90.37
2018-12-12T12:04:46.003Z,92.03
2018-12-12T12:07:15.044Z,91.85
2018-12-12T12:12:22.777Z,91.40
2018-12-12T12:14:52.271Z,90.26
2018-12-12T12:17:21.313Z,89.07
2018-12-12T12:22:31.180Z,88.89
2018-12-12T12:27:39.474Z,89.69
2018-12-12T12:30:08.531Z,89.56
2018-12-12T12:32:37.566Z,90.44
2018-12-12T12:35:06.615Z,90.27
2018-12-12T12:37:35.708Z,91.28
2018-12-12T12:40:05.818Z,91.16
2018-12-12T12:42:33.828Z,91.71
2018-12-12T12:45:02.870Z,92.22
2018-12-12T12:47:31.916Z,92.57
2018-12-12T12:50:00.961Z,92.63
2018-12-12T12:52:31.962Z,93.21
2018-12-12T12:55:01.013Z,93.14
2018-12-12T12:57:30.059Z,93.46
2018-12-12T12:59:59.112Z,93.83
2018-12-12T13:02:28.143Z,93.32
2018-12-12T13:04:57.226Z,93.48
2018-12-12T13:07:26.259Z,93.86
2018-12-12T13:10:11.549Z,94.15
2018-12-12T13:12:36.587Z,93.28
2018-12-12T13:15:05.666Z,91.62
2018-12-12T13:20:09.899Z,92.21
2018-12-12T13:25:14.690Z,92.61
2018-12-12T13:30:18.976Z,88.44
2018-12-12T13:32:48.108Z,89.35
2018-12-12T13:35:18.094Z,89.84
2018-12-12T13:37:51.358Z,88.41
2018-12-12T13:40:20.415Z,88.18
2018-12-12T13:42:49.545Z,88.69
2018-12-12T13:45:18.702Z,92.44
2018-12-12T13:50:26.378Z,92.57
2018-12-12T13:52:55.495Z,92.91
2018-12-12T13:55:24.652Z,91.54
2018-12-12T13:57:53.583Z,91.55
2018-12-12T14:00:22.625Z,90.55
2018-12-12T14:05:26.844Z,87.68
2018-12-12T14:07:55.893Z,87.16
2018-12-12T14:10:24.927Z,87.33
2018-12-12T14:12:53.979Z,86.10
2018-12-12T14:15:23.050Z,86.92
2018-12-12T14:20:27.296Z,86.82
2018-12-12T14:22:56.354Z,84.28
2018-12-12T14:25:25.386Z,86.72
2018-12-12T14:27:54.495Z,86.23
2018-12-12T14:30:24.427Z,87.67
2018-12-12T14:32:53.450Z,88.42
2018-12-12T14:35:22.523Z,89.27
2018-12-12T14:37:51.566Z,89.84
2018-12-12T14:40:20.797Z,90.03
2018-12-12T14:42:50.786Z,89.80
2018-12-12T14:45:19.843Z,90.12
2018-12-12T14:47:48.890Z,91.42
2018-12-12T14:50:17.961Z,92.59
2018-12-12T14:55:27.132Z,93.63
2018-12-12T15:00:31.422Z,95.24
2018-12-12T15:05:36.685Z,95.91
2018-12-12T15:08:05.752Z,96.18
2018-12-12T15:10:34.810Z,96.97
2018-12-12T15:15:39.602Z,97.06
2018-12-12T15:18:08.714Z,97.56
2018-12-12T15:20:37.754Z,98.62
2018-12-12T15:25:42.539Z,98.11
2018-12-12T15:28:11.597Z,98.55
2018-12-12T15:30:41.112Z,98.99
2018-12-12T15:33:09.723Z,98.73
2018-12-12T15:35:51.137Z,98.94
2018-12-12T15:38:20.407Z,99.09
2018-12-12T15:40:49.449Z,99.28
2018-12-12T15:43:18.487Z,98.87
2018-12-12T15:45:47.540Z,99.43
2018-12-12T15:48:16.643Z,99.30
2018-12-12T15:50:45.697Z,98.52
2018-12-12T15:53:14.752Z,98.87
2018-12-12T15:55:43.804Z,99.48
2018-12-12T15:58:13.835Z,99.16
2018-12-12T16:00:42.896Z,99.69
2018-12-12T16:03:11.951Z,99.27
2018-12-12T16:05:41.013Z,98.28
2018-12-12T16:08:10.066Z,98.72
2018-12-12T16:13:17.769Z,99.16
2018-12-12T16:15:46.839Z,99.18
2018-12-12T16:18:17.005Z,99.60
2018-12-12T16:20:46.036Z,99.98
2018-12-12T16:25:50.883Z,100.00
2018-12-12T16:28:19.975Z,100.00
2018-12-12T16:30:49.041Z,100.00
2018-12-12T16:33:18.070Z,99.97
2018-12-12T16:35:47.154Z,99.82
2018-12-12T16:38:16.203Z,99.81
2018-12-12T16:40:45.257Z,99.58
2018-12-12T16:43:14.383Z,99.63
2018-12-12T16:45:43.415Z,99.88
2018-12-12T16:48:13.447Z,99.34
2018-12-12T16:50:42.494Z,98.91
2018-12-12T16:53:11.534Z,98.89
2018-12-12T16:55:40.590Z,98.80
2018-12-12T16:58:09.639Z,99.25
2018-12-12T17:00:38.690Z,99.03
2018-12-12T17:03:07.760Z,98.86
2018-12-12T17:05:36.806Z,98.21
2018-12-12T17:08:05.900Z,98.46
2018-12-12T17:10:34.940Z,98.46
2018-12-12T17:13:04.024Z,98.09
2018-12-12T17:15:36.909Z,98.38
2018-12-12T17:18:05.945Z,98.63
2018-12-12T17:20:35.895Z,99.41
2018-12-12T17:25:41.186Z,98.75
2018-12-12T17:28:10.237Z,98.99
2018-12-12T17:30:39.295Z,98.97
2018-12-12T17:33:08.418Z,98.58
2018-12-12T17:35:37.475Z,98.74
2018-12-12T17:38:06.547Z,98.78
2018-12-12T17:40:35.621Z,98.63
2018-12-12T17:43:04.646Z,98.33
2018-12-12T17:45:33.707Z,98.27
2018-12-12T17:48:02.762Z,97.97
2018-12-12T17:50:31.814Z,98.37
2018-12-12T17:53:00.870Z,97.91
2018-12-12T17:55:30.319Z,99.53
2018-12-12T17:58:00.314Z,99.69
2018-12-12T18:00:29.863Z,99.50
2018-12-12T18:05:34.681Z,98.77
2018-12-12T18:08:03.799Z,99.23
2018-12-12T18:10:33.800Z,99.92
2018-12-12T18:13:02.863Z,99.55
2018-12-12T18:15:32.095Z,99.57
2018-12-12T18:18:01.128Z,99.01
2018-12-12T18:20:30.163Z,98.48
2018-12-12T18:22:59.212Z,99.04
2018-12-12T18:25:28.265Z,99.37
2018-12-12T18:27:57.330Z,99.57
2018-12-12T18:30:27.328Z,99.87
2018-12-12T18:32:56.516Z,99.79
2018-12-12T18:35:25.404Z,99.31
2018-12-12T18:37:54.452Z,99.81
2018-12-12T18:40:23.486Z,99.23
2018-12-12T18:42:52.542Z,98.33
2018-12-12T18:45:21.592Z,100.00
2018-12-12T18:47:50.662Z,99.90
2018-12-12T18:50:19.680Z,99.59
2018-12-12T18:52:48.730Z,98.80
2018-12-12T18:55:17.809Z,100.00
2018-12-12T18:57:46.850Z,99.96
2018-12-12T19:00:15.904Z,100.00
2018-12-12T19:02:44.994Z,99.33
2018-12-12T19:05:14.030Z,99.53
2018-12-12T19:07:43.083Z,99.35
2018-12-12T19:10:12.136Z,98.69
2018-12-12T19:12:41.218Z,99.38
2018-12-12T19:15:10.309Z,99.38
2018-12-12T19:17:39.402Z,99.28
2018-12-12T19:20:08.446Z,99.00
2018-12-12T19:22:37.529Z,98.59
2018-12-12T19:25:06.578Z,98.79
2018-12-12T19:27:36.519Z,98.27
2018-12-12T19:30:05.573Z,97.69
2018-12-12T19:32:36.555Z,98.55
2018-12-12T19:35:05.598Z,98.32
2018-12-12T19:37:34.632Z,98.10
2018-12-12T19:40:03.715Z,98.30
2018-12-12T19:42:32.754Z,98.95
2018-12-12T19:45:01.816Z,98.92
2018-12-12T19:47:30.857Z,98.63
2018-12-12T19:50:08.834Z,99.32
2018-12-12T19:52:38.407Z,98.62
2018-12-12T19:55:07.434Z,98.15
2018-12-12T19:57:36.485Z,98.85
2018-12-12T20:00:05.573Z,99.45
2018-12-12T20:02:34.643Z,99.68
2018-12-12T20:05:04.703Z,99.76
2018-12-12T20:07:36.638Z,100.00
2018-12-12T20:10:05.690Z,100.00
2018-12-12T20:12:35.743Z,98.91
2018-12-12T20:15:05.491Z,99.83
2018-12-12T20:17:33.940Z,100.00
2018-12-12T20:20:03.010Z,100.00
2018-12-12T20:22:32.083Z,99.70
2018-12-12T20:25:01.847Z,100.00
2018-12-12T20:27:30.965Z,100.00
2018-12-12T20:30:00.012Z,100.00
2018-12-12T20:32:29.068Z,100.00
2018-12-12T20:34:58.183Z,100.00
2018-12-12T20:37:27.219Z,100.00
2018-12-12T20:39:56.296Z,100.00
2018-12-12T20:42:25.381Z,100.00
2018-12-12T20:44:55.374Z,100.00
2018-12-12T20:47:25.360Z,100.00
2018-12-12T20:50:04.328Z,100.00
2018-12-12T20:52:35.799Z,100.00
2018-12-12T20:55:05.797Z,100.00
2018-12-12T20:57:34.851Z,100.00
2018-12-12T21:00:09.633Z,100.00
2018-12-12T21:02:41.242Z,100.00
2018-12-12T21:07:52.747Z,100.00
2018-12-12T21:10:21.938Z,100.00
2018-12-12T21:12:53.288Z,100.00
2018-12-12T21:15:26.861Z,100.00
2018-12-12T21:20:31.721Z,100.00
2018-12-12T21:23:00.926Z,100.00
2018-12-12T21:25:30.060Z,100.00
2018-12-12T21:27:59.221Z,100.00
2018-12-12T21:30:28.351Z,100.00
2018-12-12T21:32:57.420Z,100.00
2018-12-12T21:35:27.559Z,100.00
2018-12-12T21:37:56.712Z,100.00
2018-12-12T21:40:25.860Z,100.00
2018-12-12T21:42:54.948Z,100.00
2018-12-12T21:45:24.068Z,100.00
2018-12-12T21:47:55.074Z,100.00
2018-12-12T21:50:24.161Z,100.00
2018-12-12T21:52:53.348Z,100.00
2018-12-12T21:55:22.383Z,100.00
2018-12-12T21:57:55.522Z,100.00
2018-12-12T22:00:24.617Z,100.00
2018-12-12T22:02:57.469Z,100.00
2018-12-12T22:05:26.533Z,100.00
2018-12-12T22:07:55.646Z,100.00
2018-12-12T22:10:25.126Z,100.00
2018-12-12T22:12:54.296Z,100.00
2018-12-12T22:15:23.603Z,100.00
2018-12-12T22:17:52.822Z,100.00
2018-12-12T22:20:21.916Z,100.00
2018-12-12T22:22:51.035Z,100.00
2018-12-12T22:25:21.003Z,100.00
2018-12-12T22:27:50.152Z,100.00
2018-12-12T22:30:19.213Z,100.00
2018-12-12T22:32:48.277Z,100.00
2018-12-12T22:35:17.738Z,100.00
2018-12-12T22:37:46.967Z,100.00
2018-12-12T22:40:16.124Z,100.00
2018-12-12T22:42:45.214Z,100.00
2018-12-12T22:45:14.730Z,100.00
2018-12-12T22:47:44.844Z,100.00
2018-12-12T22:50:14.135Z,100.00
2018-12-12T22:52:44.234Z,100.00
2018-12-12T22:55:15.299Z,100.00
2018-12-12T22:57:44.502Z,100.00
2018-12-12T23:00:13.715Z,100.00
2018-12-12T23:02:42.948Z,100.00
2018-12-12T23:05:12.044Z,100.00
2018-12-12T23:07:41.226Z,100.00
2018-12-12T23:10:11.217Z,100.00
2018-12-12T23:12:40.337Z,100.00
2018-12-12T23:15:09.487Z,100.00
2018-12-12T23:17:39.439Z,100.00
2018-12-12T23:20:08.496Z,100.00
2018-12-12T23:22:37.559Z,100.00
2018-12-12T23:25:08.151Z,100.00
2018-12-12T23:30:12.946Z,100.00
2018-12-12T23:32:42.013Z,100.00
2018-12-12T23:35:14.258Z,100.00
2018-12-12T23:37:45.787Z,99.74
2018-12-12T23:40:16.792Z,99.59
2018-12-12T23:42:47.821Z,99.15
2018-12-12T23:45:16.920Z,98.89
2018-12-12T23:47:46.003Z,99.61
2018-12-12T23:50:15.056Z,99.41
2018-12-12T23:52:44.108Z,99.24
2018-12-12T23:57:49.450Z,99.27
